Time;durP1;ratioP1;P1;durP2;ratioP2;P2;SDS_P1;SDS_P2;PMS_P1;PMS_P2;Temp;Humidity;BMP_temperature;BMP_pressure;BME280_temperature;BME280_humidity;BME280_pressure;Samples;Min_cycle;Max_cycle;Signal;HPM_P1;HPM_P2
2022/10/09 00:00:03;;;;;;;4.53;1.10;;;9.30;99.90;;;;;;5038834;28;20053;-71
2022/10/09 00:02:28;;;;;;;5.15;1.33;;;9.00;99.90;;;;;;5056916;28;20374;-71
2022/10/09 00:04:54;;;;;;;4.03;1.30;;;9.10;99.90;;;;;;5039426;28;20175;-70
2022/10/09 00:07:20;;;;;;;4.32;1.27;;;9.30;99.90;;;;;;5056921;28;20060;-70
2022/10/09 00:09:45;;;;;;;7.78;1.50;;;8.90;99.90;;;;;;5056714;28;20111;-71
2022/10/09 00:12:11;;;;;;;4.45;1.10;;;9.20;99.90;;;;;;5056588;28;20049;-71
2022/10/09 00:14:37;;;;;;;5.10;1.02;;;9.30;99.90;;;;;;5057011;28;20041;-70
2022/10/09 00:17:02;;;;;;;3.53;1.08;;;8.80;99.90;;;;;;5056678;28;20131;-71
2022/10/09 00:19:28;;;;;;;3.45;0.90;;;8.90;99.90;;;;;;5056733;28;20090;-71
2022/10/09 00:21:54;;;;;;;5.10;1.20;;;8.90;99.90;;;;;;5038824;28;20059;-71
2022/10/09 00:24:19;;;;;;;6.70;1.60;;;9.10;99.90;;;;;;5056323;28;20049;-71
2022/10/09 00:26:46;;;;;;;3.63;1.00;;;9.10;99.90;;;;;;5056542;28;20036;-71
2022/10/09 00:29:12;;;;;;;3.28;1.13;;;9.20;99.90;;;;;;5055287;28;20041;-71
2022/10/09 00:31:38;;;;;;;5.55;1.25;;;8.80;99.90;;;;;;5038255;28;20098;-71
2022/10/09 00:34:03;;;;;;;5.80;1.20;;;8.80;99.90;;;;;;5056380;28;20048;-70
2022/10/09 00:36:29;;;;;;;3.30;0.90;;;8.80;99.90;;;;;;5055215;28;20084;-71
2022/10/09 00:38:55;;;;;;;4.05;1.00;;;9.00;99.90;;;;;;5056046;28;20095;-71
2022/10/09 00:41:27;;;;;;;5.30;1.10;;;9.00;99.90;;;;;;5055231;28;20385;-71
2022/10/09 00:44:00;;;;;;;6.13;1.13;;;9.20;99.90;;;;;;5056168;28;20044;-71
2022/10/09 00:46:48;;;;;;;2.97;1.08;;;8.70;99.90;;;;;;5056040;28;20041;-71
2022/10/09 00:49:32;;;;;;;3.92;1.35;;;9.20;99.90;;;;;;5054673;28;20561;-71
2022/10/09 00:52:01;;;;;;;7.38;1.40;;;8.90;99.90;;;;;;5056111;28;20123;-71
2022/10/09 00:54:31;;;;;;;5.20;1.00;;;8.90;99.90;;;;;;5055060;28;20052;-71
2022/10/09 00:56:58;;;;;;;6.10;1.20;;;8.70;99.90;;;;;;5055939;28;20052;-71
2022/10/09 00:59:24;;;;;;;3.63;1.20;;;8.70;99.90;;;;;;5054704;28;20052;-71
2022/10/09 01:01:50;;;;;;;2.92;1.15;;;9.20;99.90;;;;;;5055115;28;20128;-71
2022/10/09 01:04:15;;;;;;;5.38;1.42;;;8.70;99.90;;;;;;5055743;28;20140;-71
2022/10/09 01:07:03;;;;;;;4.22;1.35;;;9.00;99.90;;;;;;5055672;28;20057;-71
2022/10/09 01:09:32;;;;;;;3.40;1.50;;;8.70;99.90;;;;;;5055329;28;20055;-71
2022/10/09 01:12:04;;;;;;;5.07;1.58;;;8.70;99.90;;;;;;5055519;28;20080;-70
2022/10/09 01:15:01;;;;;;;5.18;1.52;;;8.60;99.90;;;;;;5054489;28;20459;-71
2022/10/09 01:17:41;;;;;;;14.00;1.95;;;8.70;99.90;;;;;;5037829;28;20478;-71
2022/10/09 01:20:31;;;;;;;5.50;1.90;;;8.70;99.90;;;;;;5055550;28;20484;-71
2022/10/09 01:23:09;;;;;;;5.28;1.90;;;8.70;99.90;;;;;;5055276;28;20102;-71
2022/10/09 01:25:48;;;;;;;4.65;2.05;;;8.70;99.90;;;;;;5055772;28;20114;-71
2022/10/09 01:28:17;;;;;;;9.57;2.13;;;8.80;99.90;;;;;;5039328;28;20095;-71
2022/10/09 01:30:43;;;;;;;8.88;2.42;;;8.90;99.90;;;;;;5054639;28;20045;-71
2022/10/09 01:33:10;;;;;;;4.28;1.70;;;8.80;99.90;;;;;;5053865;28;20049;-71
2022/10/09 01:35:37;;;;;;;6.13;2.10;;;9.20;99.90;;;;;;5055515;28;20098;-71
2022/10/09 01:38:03;;;;;;;5.90;1.77;;;8.70;99.90;;;;;;5054261;28;20053;-71
2022/10/09 01:40:30;;;;;;;5.60;1.95;;;8.90;99.90;;;;;;5054007;28;20507;-71
2022/10/09 01:42:57;;;;;;;7.05;2.10;;;8.80;99.90;;;;;;5050753;28;20375;-70
2022/10/09 01:45:22;;;;;;;6.70;2.20;;;8.80;99.90;;;;;;5033781;28;20057;-70
2022/10/09 01:47:48;;;;;;;4.75;1.80;;;8.80;99.90;;;;;;5050117;28;20041;-70
2022/10/09 01:50:31;;;;;;;5.05;1.85;;;8.90;99.90;;;;;;5035127;28;20048;-71
2022/10/09 01:53:02;;;;;;;6.88;2.13;;;8.80;99.90;;;;;;5034590;28;20099;-70
2022/10/09 01:55:37;;;;;;;5.53;2.08;;;8.80;99.90;;;;;;5034960;28;20042;-70
2022/10/09 01:58:09;;;;;;;5.97;2.22;;;8.80;99.90;;;;;;5034885;28;20124;-70
2022/10/09 02:00:53;;;;;;;6.45;2.35;;;8.90;99.90;;;;;;5034382;28;20049;-71
2022/10/09 02:03:19;;;;;;;;;;;8.80;99.90;;;;;;5051003;28;20052;-70
2022/10/09 02:05:48;;;;;;;6.55;2.60;;;8.80;99.90;;;;;;5033859;28;20294;-71
2022/10/09 02:08:17;;;;;;;6.85;2.38;;;8.80;99.90;;;;;;5034396;28;20502;-71
2022/10/09 02:10:45;;;;;;;9.93;3.20;;;8.90;99.90;;;;;;5033551;28;20123;-71
2022/10/09 02:13:11;;;;;;;10.80;2.60;;;9.00;99.90;;;;;;5034342;28;20514;-71
2022/10/09 02:15:46;;;;;;;5.88;2.40;;;9.20;99.90;;;;;;5035021;28;20423;-71
2022/10/09 02:18:15;;;;;;;7.97;2.47;;;9.00;99.90;;;;;;5034431;28;20038;-71
2022/10/09 02:20:49;;;;;;;6.40;2.55;;;8.70;99.90;;;;;;5034160;28;20050;-71
2022/10/09 02:23:16;;;;;;;5.22;2.63;;;9.00;99.90;;;;;;5049911;28;20053;-71
2022/10/09 02:25:42;;;;;;;6.68;2.33;;;8.70;99.90;;;;;;5034421;28;20429;-71
2022/10/09 02:28:09;;;;;;;6.82;2.33;;;8.60;99.90;;;;;;5049655;28;20045;-71
2022/10/09 02:30:46;;;;;;;8.07;2.63;;;8.90;99.90;;;;;;5033656;28;20060;-71
2022/10/09 02:33:12;;;;;;;6.72;2.60;;;8.90;99.90;;;;;;5033391;28;20049;-71
2022/10/09 02:35:38;;;;;;;5.53;2.45;;;9.40;99.90;;;;;;5032840;28;20051;-71
2022/10/09 02:38:04;;;;;;;4.13;2.00;;;8.70;99.90;;;;;;5032720;28;20505;-71
2022/10/09 02:40:30;;;;;;;10.10;2.63;;;8.80;99.90;;;;;;5033854;28;20056;-71
2022/10/09 02:42:56;;;;;;;5.95;2.47;;;8.70;99.90;;;;;;5049644;28;20045;-71
2022/10/09 02:45:21;;;;;;;6.03;2.40;;;9.30;99.90;;;;;;5032743;28;20437;-71
2022/10/09 02:47:47;;;;;;;9.20;3.25;;;8.90;99.90;;;;;;5033919;28;20044;-71
2022/10/09 02:50:13;;;;;;;8.52;2.67;;;8.90;99.90;;;;;;5033789;28;20041;-71
2022/10/09 02:52:38;;;;;;;7.55;2.63;;;8.50;99.90;;;;;;5033598;28;20045;-71
2022/10/09 02:55:04;;;;;;;6.03;2.60;;;8.80;99.90;;;;;;5034084;28;20133;-71
2022/10/09 02:57:30;;;;;;;5.50;2.78;;;8.50;99.90;;;;;;5049465;28;20049;-71
2022/10/09 02:59:56;;;;;;;8.63;2.65;;;8.80;99.90;;;;;;5033954;28;20045;-71
2022/10/09 03:02:21;;;;;;;7.72;2.58;;;8.40;99.90;;;;;;5048908;28;20045;-71
2022/10/09 03:04:47;;;;;;;5.85;2.75;;;8.80;99.90;;;;;;5016126;28;20136;-71
2022/10/09 03:07:12;;;;;;;9.43;3.22;;;8.70;99.90;;;;;;5033143;28;20135;-71
2022/10/09 03:09:38;;;;;;;5.85;3.00;;;8.60;99.90;;;;;;5033670;28;20111;-71
2022/10/09 03:12:05;;;;;;;7.88;3.30;;;8.40;99.90;;;;;;5048988;28;20049;-71
2022/10/09 03:14:31;;;;;;;6.75;3.13;;;8.50;99.90;;;;;;5032579;28;20176;-71
2022/10/09 03:16:56;;;;;;;10.77;3.70;;;8.80;99.90;;;;;;5016233;28;20136;-71
2022/10/09 03:19:22;;;;;;;7.05;3.45;;;8.40;99.90;;;;;;5048979;28;20053;-71
2022/10/09 03:21:47;;;;;;;5.13;3.00;;;8.40;99.90;;;;;;5048735;28;20048;-71
2022/10/09 03:24:13;;;;;;;8.25;2.78;;;8.50;99.90;;;;;;5033217;28;20041;-71
2022/10/09 03:26:39;;;;;;;5.07;3.97;;;8.40;99.90;;;;;;5048610;28;20088;-70
2022/10/09 03:29:04;;;;;;;5.80;2.72;;;8.60;99.90;;;;;;5032303;28;20045;-71
2022/10/09 03:31:30;;;;;;;8.32;2.90;;;8.80;99.90;;;;;;5047998;28;20056;-71
2022/10/09 03:33:56;;;;;;;6.20;3.10;;;8.70;99.90;;;;;;5033190;28;20402;-71
2022/10/09 03:36:21;;;;;;;5.57;2.38;;;8.90;99.90;;;;;;5048633;28;20049;-71
2022/10/09 03:38:47;;;;;;;4.90;2.83;;;8.80;99.90;;;;;;5048959;28;20049;-71
2022/10/09 03:41:13;;;;;;;7.97;2.92;;;8.90;99.90;;;;;;5033514;28;20046;-71
2022/10/09 03:43:38;;;;;;;5.28;2.75;;;8.50;99.90;;;;;;5032382;28;20060;-71
2022/10/09 03:46:08;;;;;;;9.00;3.55;;;8.40;99.90;;;;;;5048680;28;20505;-71
2022/10/09 03:48:34;;;;;;;5.72;3.38;;;8.80;99.90;;;;;;5033028;28;20048;-71
2022/10/09 03:51:00;;;;;;;6.47;2.88;;;8.40;99.90;;;;;;5032939;28;20103;-71
2022/10/09 03:53:26;;;;;;;6.38;2.80;;;8.70;99.90;;;;;;5048671;28;20478;-71
2022/10/09 03:55:52;;;;;;;4.18;2.78;;;8.30;99.90;;;;;;5032180;28;20508;-71
2022/10/09 03:58:18;;;;;;;6.35;2.88;;;8.60;99.90;;;;;;5033019;28;20045;-71
2022/10/09 04:00:44;;;;;;;7.30;2.80;;;8.20;99.90;;;;;;5048259;28;20056;-71
2022/10/09 04:03:10;;;;;;;4.95;2.40;;;8.10;99.90;;;;;;5048661;28;20046;-71
2022/10/09 04:05:36;;;;;;;6.97;2.40;;;8.30;99.90;;;;;;5032558;28;20125;-71
2022/10/09 04:08:02;;;;;;;4.50;2.67;;;8.40;99.90;;;;;;5033033;28;20049;-71
2022/10/09 04:10:28;;;;;;;5.15;2.40;;;8.40;99.90;;;;;;5032987;28;20254;-71
2022/10/09 04:12:53;;;;;;;4.57;2.30;;;8.10;99.90;;;;;;5032938;28;20129;-71
2022/10/09 04:15:19;;;;;;;6.07;2.53;;;8.40;99.90;;;;;;5031919;28;20444;-71
2022/10/09 04:17:45;;;;;;;4.75;2.78;;;8.40;99.90;;;;;;5032751;28;20041;-71
2022/10/09 04:20:10;;;;;;;7.30;2.53;;;8.40;99.90;;;;;;5032662;28;20129;-71
2022/10/09 04:22:36;;;;;;;5.70;2.50;;;8.20;99.90;;;;;;5048274;28;20045;-72
2022/10/09 04:25:02;;;;;;;7.28;3.05;;;8.50;99.90;;;;;;5032875;28;20061;-71
2022/10/09 04:27:28;;;;;;;6.78;2.78;;;8.10;99.90;;;;;;5048133;28;20045;-71
2022/10/09 04:29:53;;;;;;;6.28;3.10;;;8.40;99.90;;;;;;5048325;28;20086;-71
2022/10/09 04:32:19;;;;;;;4.88;2.88;;;8.60;99.90;;;;;;5047599;28;20041;-71
2022/10/09 04:34:45;;;;;;;6.00;2.83;;;8.10;99.90;;;;;;5032667;28;20048;-71
2022/10/09 04:37:10;;;;;;;5.53;2.83;;;8.30;99.90;;;;;;5031637;28;20549;-71
2022/10/09 04:39:36;;;;;;;5.03;3.15;;;8.00;99.90;;;;;;5048385;28;20132;-71
2022/10/09 04:42:02;;;;;;;6.38;3.17;;;8.50;99.90;;;;;;5015359;28;20049;-71
2022/10/09 04:44:27;;;;;;;6.65;3.50;;;7.90;99.90;;;;;;5035873;28;20057;-71
2022/10/09 04:46:53;;;;;;;6.55;3.47;;;8.40;99.90;;;;;;5036082;28;20052;-71
2022/10/09 04:49:18;;;;;;;4.25;3.05;;;8.40;99.90;;;;;;5035782;28;20120;-71
2022/10/09 04:51:44;;;;;;;6.53;3.13;;;8.10;99.90;;;;;;5036265;28;20560;-71
2022/10/09 04:54:11;;;;;;;4.72;2.95;;;8.60;99.90;;;;;;5036050;28;20049;-71
2022/10/09 04:56:36;;;;;;;4.05;2.60;;;8.10;99.90;;;;;;5036085;28;20041;-71
2022/10/09 04:59:02;;;;;;;5.90;3.25;;;8.10;99.90;;;;;;5051577;28;20054;-71
2022/10/09 05:01:28;;;;;;;6.72;3.45;;;7.90;99.90;;;;;;5035463;28;20064;-71
2022/10/09 05:03:55;;;;;;;8.48;3.67;;;7.90;99.90;;;;;;5035671;28;20045;-71
2022/10/09 05:06:21;;;;;;;5.18;3.50;;;8.00;99.90;;;;;;5033226;28;20057;-73
2022/10/09 05:08:48;;;;;;;4.50;3.30;;;7.90;99.90;;;;;;5047525;28;20429;-71
2022/10/09 05:11:20;;;;;;;5.75;3.42;;;7.90;99.90;;;;;;5031091;28;20053;-73
2022/10/09 05:13:49;;;;;;;5.30;3.67;;;8.40;99.90;;;;;;5030968;28;20171;-73
2022/10/09 05:16:18;;;;;;;8.52;4.38;;;7.90;99.90;;;;;;5047335;28;20053;-73
2022/10/09 05:18:50;;;;;;;8.40;4.05;;;8.30;99.90;;;;;;5031946;28;20056;-73
2022/10/09 05:21:16;;;;;;;7.00;3.80;;;7.80;99.90;;;;;;5030588;28;20136;-72
2022/10/09 05:23:42;;;;;;;5.97;4.05;;;7.90;99.90;;;;;;5032131;28;20127;-73
2022/10/09 05:26:12;;;;;;;5.10;3.60;;;8.10;99.90;;;;;;5047573;28;20089;-73
2022/10/09 05:28:38;;;;;;;8.00;4.50;;;7.70;99.90;;;;;;5031718;28;20532;-72
2022/10/09 05:31:05;;;;;;;6.95;4.35;;;8.10;99.90;;;;;;5040274;28;20043;-71
2022/10/09 05:33:31;;;;;;;9.65;4.05;;;7.70;99.90;;;;;;5042722;28;20067;-71
2022/10/09 05:35:58;;;;;;;7.28;3.90;;;7.70;99.90;;;;;;5059833;28;20048;-75
2022/10/09 05:38:25;;;;;;;10.63;4.28;;;7.90;99.90;;;;;;5061303;28;20051;-72
2022/10/09 05:41:01;;;;;;;9.98;4.82;;;7.70;99.90;;;;;;5043123;28;20049;-72
2022/10/09 05:43:33;;;;;;;4.82;3.95;;;7.60;99.90;;;;;;5060143;28;20546;-74
2022/10/09 05:46:12;;;;;;;8.30;4.60;;;7.60;99.90;;;;;;5060210;28;20060;-73
2022/10/09 05:48:43;;;;;;;8.35;4.57;;;7.70;99.90;;;;;;5060223;28;20044;-72
2022/10/09 05:51:19;;;;;;;10.05;4.47;;;8.40;99.90;;;;;;5056281;28;20048;-73
2022/10/09 05:53:46;;;;;;;9.15;4.60;;;7.80;99.90;;;;;;5058367;28;20087;-72
2022/10/09 05:56:19;;;;;;;5.78;4.25;;;7.80;99.90;;;;;;5061307;28;20040;-73
2022/10/09 05:58:53;;;;;;;5.10;3.97;;;7.70;99.90;;;;;;5061419;28;20128;-73
2022/10/09 06:01:20;;;;;;;6.57;4.22;;;7.50;99.90;;;;;;5061062;28;20033;-74
2022/10/09 06:03:51;;;;;;;6.60;4.18;;;7.40;99.90;;;;;;5059600;28;20056;-74
2022/10/09 06:06:19;;;;;;;7.75;4.65;;;7.40;99.90;;;;;;5060536;28;20404;-74
2022/10/09 06:08:45;;;;;;;7.57;4.60;;;8.20;99.90;;;;;;5059198;28;20057;-72
2022/10/09 06:11:12;;;;;;;7.72;4.72;;;7.90;99.90;;;;;;5060854;28;20485;-74
2022/10/09 06:13:38;;;;;;;8.57;4.75;;;7.60;99.90;;;;;;5059407;28;20511;-73
2022/10/09 06:16:04;;;;;;;7.78;4.30;;;7.90;99.90;;;;;;5058497;28;20080;-73
2022/10/09 06:18:30;;;;;;;6.35;4.32;;;7.40;99.90;;;;;;5059826;28;20530;-73
2022/10/09 06:20:58;;;;;;;6.40;3.72;;;7.90;99.90;;;;;;5060274;28;20057;-73
2022/10/09 06:23:24;;;;;;;5.18;3.45;;;8.00;99.90;;;;;;5059378;28;20045;-73
2022/10/09 06:26:11;;;;;;;6.57;4.00;;;7.60;99.90;;;;;;5060522;28;20424;-73
2022/10/09 06:28:37;;;;;;;6.00;4.00;;;7.60;99.90;;;;;;5058830;28;20041;-72
2022/10/09 06:31:15;;;;;;;6.90;4.38;;;7.80;99.90;;;;;;5058738;28;20056;-73
2022/10/09 06:33:42;;;;;;;6.63;3.78;;;7.80;99.90;;;;;;5059416;28;20036;-72
2022/10/09 06:36:11;;;;;;;5.80;3.50;;;7.90;99.90;;;;;;5072425;28;20075;-72
2022/10/09 06:38:38;;;;;;;6.63;3.53;;;7.70;99.90;;;;;;5059440;28;20059;-72
2022/10/09 06:41:13;;;;;;;9.10;3.83;;;7.70;99.90;;;;;;5059884;28;20033;-72
2022/10/09 06:43:39;;;;;;;6.72;4.15;;;8.20;99.90;;;;;;5059448;28;20400;-72
2022/10/09 06:46:10;;;;;;;7.10;4.30;;;7.80;99.90;;;;;;5057663;28;20047;-72
2022/10/09 06:48:38;;;;;;;8.02;3.85;;;8.20;99.90;;;;;;5059558;28;20033;-72
2022/10/09 06:51:09;;;;;;;5.80;3.80;;;7.60;99.90;;;;;;5060436;28;20054;-74
2022/10/09 06:53:45;;;;;;;4.50;3.47;;;8.10;99.90;;;;;;5059980;28;20119;-73
2022/10/09 06:56:14;;;;;;;5.20;4.05;;;8.00;99.90;;;;;;5055908;28;20458;-72
2022/10/09 06:58:40;;;;;;;7.82;5.13;;;8.00;99.90;;;;;;5058592;28;20044;-73
2022/10/09 07:01:06;;;;;;;4.28;3.17;;;7.90;99.90;;;;;;5059056;28;20377;-72
2022/10/09 07:03:33;;;;;;;8.55;4.30;;;8.20;99.90;;;;;;5057888;28;20461;-72
2022/10/09 07:06:20;;;;;;;5.38;4.22;;;8.00;99.90;;;;;;5057063;28;20129;-75
2022/10/09 07:08:56;;;;;;;5.97;3.75;;;8.00;99.90;;;;;;5059414;28;20508;-71
2022/10/09 07:11:24;;;;;;;7.97;4.22;;;8.00;99.90;;;;;;5059449;28;20049;-69
2022/10/09 07:13:56;;;;;;;4.60;3.72;;;8.10;99.90;;;;;;5055548;28;20118;-71
2022/10/09 07:16:28;;;;;;;6.32;3.53;;;8.60;99.90;;;;;;5057331;28;20047;-72
2022/10/09 07:18:54;;;;;;;7.87;4.00;;;8.20;99.90;;;;;;5039689;28;20061;-72
2022/10/09 07:21:20;;;;;;;6.47;4.72;;;8.00;99.90;;;;;;5058978;28;20044;-72
2022/10/09 07:23:47;;;;;;;11.32;5.18;;;8.40;99.90;;;;;;5057851;28;20056;-72
2022/10/09 07:26:15;;;;;;;6.28;4.60;;;8.30;99.90;;;;;;5059927;28;20036;-72
2022/10/09 07:28:42;;;;;;;6.88;5.22;;;8.20;99.90;;;;;;5060329;28;20119;-71
2022/10/09 07:31:09;;;;;;;9.18;5.07;;;8.40;99.90;;;;;;5054622;28;20116;-70
2022/10/09 07:33:35;;;;;;;7.55;5.00;;;8.50;99.90;;;;;;5059539;28;20059;-72
2022/10/09 07:36:02;;;;;;;7.13;4.43;;;8.40;99.90;;;;;;5060147;28;20045;-74
2022/10/09 07:38:28;;;;;;;7.75;5.10;;;8.40;99.90;;;;;;5055278;28;20488;-71
2022/10/09 07:40:58;;;;;;;8.20;4.93;;;8.50;99.90;;;;;;5059604;28;20097;-72
2022/10/09 07:43:23;;;;;;;10.05;5.68;;;9.00;99.90;;;;;;5058710;28;20060;-72
2022/10/09 07:45:49;;;;;;;9.95;5.50;;;8.50;99.90;;;;;;5058504;28;20110;-72
2022/10/09 07:48:15;;;;;;;7.70;5.38;;;8.80;99.90;;;;;;5041400;28;20055;-72
2022/10/09 07:50:40;;;;;;;12.85;5.40;;;8.90;99.90;;;;;;5059823;28;20566;-72
2022/10/09 07:53:07;;;;;;;9.60;5.50;;;8.70;99.90;;;;;;5058150;28;20049;-72
2022/10/09 07:55:34;;;;;;;9.95;5.32;;;8.70;99.90;;;;;;5059400;28;20110;-74
2022/10/09 07:57:59;;;;;;;9.65;5.45;;;9.30;99.90;;;;;;5058137;28;20669;-72
2022/10/09 08:00:25;;;;;;;9.52;5.55;;;9.10;99.90;;;;;;5057474;28;20045;-71
2022/10/09 08:02:51;;;;;;;10.00;5.82;;;9.00;99.90;;;;;;5049664;28;20396;-72
2022/10/09 08:05:17;;;;;;;10.50;5.93;;;9.10;99.90;;;;;;5047611;28;20052;-72
2022/10/09 08:07:42;;;;;;;6.75;5.38;;;9.00;99.90;;;;;;5057821;28;20056;-72
2022/10/09 08:10:08;;;;;;;8.23;5.38;;;9.50;99.90;;;;;;5057756;28;20451;-72
2022/10/09 08:12:34;;;;;;;8.98;5.32;;;9.00;99.90;;;;;;5058026;28;20451;-73
2022/10/09 08:15:00;;;;;;;8.18;5.88;;;9.10;99.90;;;;;;5058228;28;20045;-72
2022/10/09 08:17:25;;;;;;;8.50;5.30;;;9.40;99.90;;;;;;5041785;28;20064;-72
2022/10/09 08:19:51;;;;;;;11.10;6.55;;;9.40;99.90;;;;;;5053522;28;20049;-72
2022/10/09 08:22:17;;;;;;;8.13;5.38;;;9.70;99.90;;;;;;5037570;28;20048;-72
2022/10/09 08:24:42;;;;;;;8.32;5.43;;;9.70;99.90;;;;;;5052192;28;20485;-72
2022/10/09 08:27:08;;;;;;;9.68;5.30;;;9.60;99.90;;;;;;5052855;28;20080;-72
2022/10/09 08:29:34;;;;;;;9.10;5.72;;;9.80;99.90;;;;;;5051602;28;20045;-71
2022/10/09 08:31:59;;;;;;;10.13;5.97;;;9.50;99.90;;;;;;5034848;28;20062;-71
2022/10/09 08:34:25;;;;;;;9.15;5.32;;;10.00;99.90;;;;;;5051861;28;20049;-71
2022/10/09 08:36:51;;;;;;;8.77;5.55;;;9.80;99.90;;;;;;5051068;28;20055;-71
2022/10/09 08:39:16;;;;;;;12.80;5.97;;;10.10;99.90;;;;;;5051699;28;20557;-72
2022/10/09 08:41:53;;;;;;;12.40;5.40;;;9.90;99.90;;;;;;5053016;28;20052;-72
2022/10/09 08:44:27;;;;;;;6.20;4.95;;;10.10;99.90;;;;;;5052835;28;20091;-73
2022/10/09 08:46:53;;;;;;;7.88;4.40;;;10.10;99.90;;;;;;5052743;28;20049;-73
2022/10/09 08:49:33;;;;;;;8.63;4.90;;;10.20;99.90;;;;;;5050256;28;20047;-71
2022/10/09 08:52:11;;;;;;;7.85;5.05;;;10.10;99.90;;;;;;5052585;28;20045;-71
2022/10/09 08:54:38;;;;;;;11.45;4.90;;;10.20;99.90;;;;;;5035010;28;20067;-74
2022/10/09 08:57:13;;;;;;;8.93;5.00;;;10.30;99.90;;;;;;5052912;28;20382;-72
2022/10/09 08:59:39;;;;;;;10.27;4.50;;;10.30;99.90;;;;;;5051678;28;20507;-71
2022/10/09 09:02:38;;;;;;;9.88;4.30;;;10.40;99.90;;;;;;5051603;28;20079;-72
2022/10/09 09:05:12;;;;;;;5.60;3.58;;;10.50;99.90;;;;;;5040465;28;20059;-71
2022/10/09 09:08:00;;;;;;;7.22;3.50;;;10.50;99.90;;;;;;5051746;28;20049;-72
2022/10/09 09:10:49;;;;;;;5.45;3.03;;;10.60;99.90;;;;;;5050785;28;20497;-72
2022/10/09 09:13:40;;;;;;;6.03;3.00;;;10.70;99.90;;;;;;5052251;28;20500;-71
2022/10/09 09:16:19;;;;;;;6.85;3.40;;;10.80;99.90;;;;;;5050842;28;20052;-71
2022/10/09 09:19:14;;;;;;;4.90;2.80;;;10.80;99.90;;;;;;5052310;28;20109;-71
2022/10/09 09:21:51;;;;;;;8.60;3.42;;;10.90;99.90;;;;;;5050631;28;20056;-71
2022/10/09 09:24:19;;;;;;;8.73;3.78;;;10.90;99.90;;;;;;5048882;28;20049;-73
2022/10/09 09:26:50;;;;;;;5.90;3.35;;;11.00;99.90;;;;;;5050706;28;20072;-72
2022/10/09 09:29:21;;;;;;;10.02;3.38;;;11.10;99.90;;;;;;5049559;28;20074;-70
2022/10/09 09:31:49;;;;;;;7.47;2.88;;;11.10;99.90;;;;;;5050405;28;20052;-72
2022/10/09 09:34:37;;;;;;;7.00;3.47;;;11.30;99.90;;;;;;5051509;28;20374;-70
2022/10/09 09:37:03;;;;;;;6.18;3.10;;;11.20;99.90;;;;;;5032818;28;20352;-71
2022/10/09 09:39:32;;;;;;;5.22;3.08;;;11.20;99.90;;;;;;5050982;28;20045;-71
2022/10/09 09:42:10;;;;;;;6.00;2.75;;;11.30;99.90;;;;;;5050624;28;20049;-72
2022/10/09 09:44:43;;;;;;;6.75;3.00;;;11.40;99.90;;;;;;5050594;28;20047;-71
2022/10/09 09:47:18;;;;;;;6.15;2.70;;;11.40;99.90;;;;;;5049967;28;20541;-72
2022/10/09 09:49:58;;;;;;;8.23;2.80;;;11.50;99.90;;;;;;5050360;28;20110;-71
2022/10/09 09:52:28;;;;;;;7.00;2.47;;;11.60;99.90;;;;;;5050445;28;20053;-71
2022/10/09 09:54:57;;;;;;;7.18;2.63;;;11.60;99.90;;;;;;5049516;28;20496;-70
2022/10/09 09:57:36;;;;;;;8.50;3.10;;;11.60;99.90;;;;;;5049444;28;20044;-71
2022/10/09 10:00:15;;;;;;;6.22;3.17;;;11.80;99.90;;;;;;5050464;28;20052;-72
2022/10/09 10:02:41;;;;;;;5.40;2.25;;;11.80;99.90;;;;;;5032178;28;20049;-72
2022/10/09 10:05:26;;;;;;;6.03;2.67;;;11.90;99.90;;;;;;5048552;28;20429;-71
2022/10/09 10:07:52;;;;;;;6.00;2.30;;;;;;;;;;5049676;28;20060;-73
2022/10/09 10:10:18;;;;;;;8.45;3.00;;;;;;;;;;5050594;28;20270;-72
2022/10/09 10:12:57;;;;;;;9.07;2.42;;;11.90;99.90;;;;;;5047719;28;20053;-71
2022/10/09 10:15:29;;;;;;;5.00;2.08;;;11.90;99.90;;;;;;5053594;28;20164;-71
2022/10/09 10:17:58;;;;;;;4.78;2.70;;;12.00;99.90;;;;;;5053393;28;20048;-71
2022/10/09 10:20:24;;;;;;;4.25;2.80;;;12.00;99.90;;;;;;5053780;28;20389;-71
2022/10/09 10:22:53;;;;;;;5.95;2.10;;;12.10;99.90;;;;;;5051893;28;20497;-70
2022/10/09 10:25:24;;;;;;;4.70;1.95;;;12.10;99.90;;;;;;5052398;28;20076;-72
2022/10/09 10:27:54;;;;;;;5.78;1.98;;;12.20;99.90;;;;;;5053077;28;20478;-70
2022/10/09 10:30:20;;;;;;;5.68;1.92;;;12.20;99.90;;;;;;5052354;28;20417;-70
2022/10/09 10:33:17;;;;;;;4.78;2.28;;;12.30;99.90;;;;;;5052652;28;20056;-71
2022/10/09 10:35:44;;;;;;;8.18;2.33;;;12.40;99.90;;;;;;5052938;28;20064;-70
2022/10/09 10:38:18;;;;;;;7.22;2.45;;;;;;;;;;5052871;28;20056;-70
2022/10/09 10:41:01;;;;;;;5.07;1.73;;;;;;;;;;5053200;28;20056;-71
2022/10/09 10:43:27;;;;;;;;;;;;;;;;;;5050767;28;20041;-70
2022/10/09 10:46:12;;;;;;;5.32;1.67;;;12.50;99.90;;;;;;5051813;28;19921;-71
2022/10/09 10:48:42;;;;;;;5.90;1.80;;;12.50;99.90;;;;;;5033068;28;20081;-70
2022/10/09 10:51:29;;;;;;;3.78;1.52;;;12.70;99.90;;;;;;5034526;28;20451;-70
2022/10/09 10:54:00;;;;;;;4.38;1.73;;;12.60;99.90;;;;;;5052249;28;20120;-70
2022/10/09 10:56:44;;;;;;;6.40;1.75;;;12.70;99.90;;;;;;5051936;28;20073;-72
2022/10/09 10:59:10;;;;;;;6.80;1.73;;;12.80;99.90;;;;;;5053637;28;20045;-71
2022/10/09 11:01:47;;;;;;;4.32;1.33;;;12.70;99.90;;;;;;5052895;28;20037;-70
2022/10/09 11:04:31;;;;;;;5.93;1.50;;;12.50;99.90;;;;;;5053639;28;20048;-71
2022/10/09 11:07:11;;;;;;;4.15;1.55;;;12.90;99.90;;;;;;5052788;28;20057;-71
2022/10/09 11:09:59;;;;;;;4.40;1.08;;;12.80;99.90;;;;;;5053229;28;20041;-71
2022/10/09 11:12:44;;;;;;;3.45;1.10;;;12.80;99.90;;;;;;5053741;28;20118;-70
2022/10/09 11:15:40;;;;;;;5.20;1.25;;;12.90;99.90;;;;;;5053428;28;20056;-70
2022/10/09 11:18:06;;;;;;;7.07;1.23;;;13.00;99.90;;;;;;5053050;28;20552;-70
2022/10/09 11:20:45;;;;;;;2.90;1.00;;;13.10;99.90;;;;;;5035752;28;20140;-70
2022/10/09 11:23:52;;;;;;;5.78;0.90;;;12.90;99.90;;;;;;5053256;28;20041;-70
2022/10/09 11:26:23;;;;;;;7.32;1.30;;;13.00;99.90;;;;;;5051465;28;20052;-70
2022/10/09 11:28:59;;;;;;;4.20;0.90;;;13.00;99.90;;;;;;5053207;28;20045;-71
2022/10/09 11:31:36;;;;;;;2.63;1.02;;;13.20;99.90;;;;;;5051649;28;20509;-71
2022/10/09 11:34:16;;;;;;;3.83;1.17;;;13.20;99.90;;;;;;5052317;28;20103;-71
2022/10/09 11:36:43;;;;;;;5.38;0.90;;;13.20;99.90;;;;;;5052436;28;20083;-71
2022/10/09 11:39:31;;;;;;;6.07;0.95;;;13.20;99.90;;;;;;5052990;28;20045;-71
2022/10/09 11:41:58;;;;;;;3.42;0.80;;;13.30;99.90;;;;;;5053235;28;20049;-70
2022/10/09 11:44:51;;;;;;;4.07;0.80;;;13.50;99.90;;;;;;5052910;28;20051;-71
2022/10/09 11:47:42;;;;;;;3.08;0.73;;;13.40;99.90;;;;;;5052459;28;20049;-70
2022/10/09 11:50:35;;;;;;;2.80;0.90;;;13.40;99.90;;;;;;5053340;28;20052;-70
2022/10/09 11:53:04;;;;;;;4.30;0.90;;;13.50;99.90;;;;;;5054585;28;20124;-70
2022/10/09 11:55:32;;;;;;;4.63;0.75;;;13.50;99.90;;;;;;5056280;28;20049;-70
2022/10/09 11:58:26;;;;;;;3.67;0.90;;;13.60;99.90;;;;;;5056773;28;20051;-70
2022/10/09 12:00:54;;;;;;;5.13;1.20;;;13.50;99.90;;;;;;5055066;28;20057;-70
2022/10/09 12:03:32;;;;;;;4.20;0.80;;;13.60;99.90;;;;;;5056649;28;20056;-70
2022/10/09 12:06:17;;;;;;;5.18;0.80;;;13.60;99.90;;;;;;5057083;28;20080;-70
2022/10/09 12:09:06;;;;;;;3.50;1.10;;;13.70;99.90;;;;;;5056405;28;20076;-70
2022/10/09 12:11:33;;;;;;;2.05;0.80;;;13.80;99.90;;;;;;5056053;28;20049;-71
2022/10/09 12:14:02;;;;;;;4.28;0.90;;;13.90;99.90;;;;;;5055456;28;20053;-71
2022/10/09 12:16:40;;;;;;;3.92;0.90;;;13.80;99.90;;;;;;5055716;28;20056;-70
2022/10/09 12:19:15;;;;;;;4.38;0.68;;;13.90;99.90;;;;;;5056739;28;20049;-70
2022/10/09 12:22:05;;;;;;;3.72;0.73;;;13.80;99.90;;;;;;5056681;28;20057;-70
2022/10/09 12:24:40;;;;;;;4.75;0.70;;;13.80;99.90;;;;;;5056810;28;20049;-71
2022/10/09 12:27:06;;;;;;;3.50;0.60;;;14.00;99.90;;;;;;5055761;28;20401;-70
2022/10/09 12:29:42;;;;;;;4.53;0.70;;;14.00;99.90;;;;;;5055622;28;20045;-71
2022/10/09 12:32:17;;;;;;;2.30;0.75;;;14.00;99.90;;;;;;5056239;28;20059;-71
2022/10/09 12:34:47;;;;;;;3.58;0.60;;;14.10;99.90;;;;;;5055308;28;20190;-71
2022/10/09 12:37:14;;;;;;;2.35;0.60;;;13.90;99.90;;;;;;5056390;28;20485;-70
2022/10/09 12:39:40;;;;;;;5.35;0.63;;;14.10;99.90;;;;;;5038937;28;20045;-70
2022/10/09 12:42:14;;;;;;;5.28;0.60;;;14.10;99.90;;;;;;5039220;28;20055;-72
2022/10/09 12:44:39;;;;;;;5.40;0.88;;;14.10;99.90;;;;;;5072327;28;20071;-70
2022/10/09 12:47:08;;;;;;;2.88;0.60;;;14.10;99.90;;;;;;5071975;28;20481;-70
2022/10/09 12:49:34;;;;;;;1.95;0.50;;;14.10;99.90;;;;;;5055091;28;20084;-71
2022/10/09 12:52:00;;;;;;;2.65;0.60;;;15.00;99.90;;;;;;5055370;28;20068;-71
2022/10/09 12:54:29;;;;;;;1.67;0.55;;;14.20;99.90;;;;;;5056413;28;20045;-71
2022/10/09 12:56:56;;;;;;;2.53;0.50;;;14.20;99.90;;;;;;5056373;28;20037;-70
2022/10/09 12:59:25;;;;;;;3.78;0.60;;;14.30;99.90;;;;;;5055961;28;20102;-71
2022/10/09 13:01:56;;;;;;;1.80;0.50;;;14.10;99.90;;;;;;5055686;28;20049;-70
2022/10/09 13:04:30;;;;;;;4.72;0.75;;;14.30;99.90;;;;;;5054450;28;20128;-70
2022/10/09 13:06:58;;;;;;;3.88;0.60;;;14.30;99.90;;;;;;5056068;28;20053;-70
2022/10/09 13:09:33;;;;;;;3.95;0.70;;;14.30;99.90;;;;;;5054528;28;20041;-70
2022/10/09 13:12:14;;;;;;;2.22;0.50;;;14.30;99.90;;;;;;5055710;28;20045;-71